North Babylon, New York
Current Conditions -  °F | °C
As of 9:04 AM on Monday 22 Dec 2014 (Local Time) from KFRG Reporting Station
Broken Clouds Broken Clouds  
Wind Chill:   Ceiling: 4000
Heat Index:   Visibility: 10mi
Dew Point:   Wind: 9mph
Humidity: 86%   Direction: 50°NE
Pressure: 30.31"   Gusts: NA
Location:  40.74°N, 73.32°W
Report Text: KFRG 221404Z 05008KT 10SM SCT008 BKN040 05/03 A3031 RMK AO2 T00500028
Loading
Personal Weather Stations






























Interactive Weather Map New forecast layout! Learn more

10-Day Weather Forecast

Advertisements
Track Severe Weather on mobile